sensor_id;sensor_type;location;lat;lon;timestamp;P1;durP1;ratioP1;P2;durP2;ratioP2
64959;SDS011;51487;52.266;10.542;2022-12-18T00:01:14;22.35;;;16.50;;
64959;SDS011;51487;52.266;10.542;2022-12-18T00:03:44;19.17;;;14.60;;
64959;SDS011;51487;52.266;10.542;2022-12-18T00:06:11;17.35;;;13.45;;
64959;SDS011;51487;52.266;10.542;2022-12-18T00:08:37;17.70;;;14.65;;
64959;SDS011;51487;52.266;10.542;2022-12-18T00:11:03;21.30;;;14.75;;
64959;SDS011;51487;52.266;10.542;2022-12-18T00:13:31;22.80;;;16.35;;
64959;SDS011;51487;52.266;10.542;2022-12-18T00:16:00;23.25;;;15.25;;
64959;SDS011;51487;52.266;10.542;2022-12-18T00:18:31;20.15;;;13.73;;
64959;SDS011;51487;52.266;10.542;2022-12-18T00:21:05;19.23;;;14.13;;
64959;SDS011;51487;52.266;10.542;2022-12-18T00:23:35;18.50;;;13.65;;
64959;SDS011;51487;52.266;10.542;2022-12-18T00:26:03;21.35;;;14.68;;
64959;SDS011;51487;52.266;10.542;2022-12-18T00:28:31;22.27;;;15.32;;
64959;SDS011;51487;52.266;10.542;2022-12-18T00:31:05;21.42;;;15.45;;
64959;SDS011;51487;52.266;10.542;2022-12-18T00:33:34;18.25;;;13.82;;
64959;SDS011;51487;52.266;10.542;2022-12-18T00:36:01;17.45;;;13.70;;
64959;SDS011;51487;52.266;10.542;2022-12-18T00:38:46;22.50;;;15.02;;
64959;SDS011;51487;52.266;10.542;2022-12-18T00:41:14;19.98;;;14.48;;
64959;SDS011;51487;52.266;10.542;2022-12-18T00:44:02;18.20;;;14.05;;
64959;SDS011;51487;52.266;10.542;2022-12-18T00:46:29;20.60;;;14.15;;
64959;SDS011;51487;52.266;10.542;2022-12-18T00:48:55;21.92;;;14.93;;
64959;SDS011;51487;52.266;10.542;2022-12-18T00:51:21;20.17;;;14.18;;
64959;SDS011;51487;52.266;10.542;2022-12-18T00:53:46;19.83;;;14.48;;
64959;SDS011;51487;52.266;10.542;2022-12-18T00:56:12;19.00;;;14.48;;
64959;SDS011;51487;52.266;10.542;2022-12-18T00:58:37;18.60;;;14.10;;
64959;SDS011;51487;52.266;10.542;2022-12-18T01:01:04;20.48;;;13.57;;
64959;SDS011;51487;52.266;10.542;2022-12-18T01:03:30;18.50;;;14.57;;
64959;SDS011;51487;52.266;10.542;2022-12-18T01:05:55;20.70;;;15.23;;
64959;SDS011;51487;52.266;10.542;2022-12-18T01:08:21;19.13;;;13.80;;
64959;SDS011;51487;52.266;10.542;2022-12-18T01:10:47;17.80;;;14.27;;
64959;SDS011;51487;52.266;10.542;2022-12-18T01:13:13;21.48;;;15.48;;
64959;SDS011;51487;52.266;10.542;2022-12-18T01:15:38;20.77;;;15.02;;
64959;SDS011;51487;52.266;10.542;2022-12-18T01:18:05;22.42;;;15.32;;
64959;SDS011;51487;52.266;10.542;2022-12-18T01:20:31;18.13;;;14.65;;
64959;SDS011;51487;52.266;10.542;2022-12-18T01:22:57;17.27;;;13.15;;
64959;SDS011;51487;52.266;10.542;2022-12-18T01:25:23;20.50;;;15.00;;
64959;SDS011;51487;52.266;10.542;2022-12-18T01:27:49;21.17;;;15.48;;
64959;SDS011;51487;52.266;10.542;2022-12-18T01:30:14;19.40;;;14.63;;
64959;SDS011;51487;52.266;10.542;2022-12-18T01:32:40;19.15;;;14.55;;
64959;SDS011;51487;52.266;10.542;2022-12-18T01:35:06;19.65;;;14.18;;
64959;SDS011;51487;52.266;10.542;2022-12-18T01:37:32;19.17;;;14.27;;
64959;SDS011;51487;52.266;10.542;2022-12-18T01:39:57;19.85;;;14.98;;
64959;SDS011;51487;52.266;10.542;2022-12-18T01:42:23;19.42;;;14.75;;
64959;SDS011;51487;52.266;10.542;2022-12-18T01:45:04;19.00;;;14.77;;
64959;SDS011;51487;52.266;10.542;2022-12-18T01:53:06;21.58;;;14.85;;
64959;SDS011;51487;52.266;10.542;2022-12-18T01:55:39;18.90;;;14.43;;
64959;SDS011;51487;52.266;10.542;2022-12-18T01:58:12;19.35;;;14.43;;
64959;SDS011;51487;52.266;10.542;2022-12-18T02:00:38;19.08;;;14.82;;
64959;SDS011;51487;52.266;10.542;2022-12-18T02:03:04;21.25;;;14.82;;
64959;SDS011;51487;52.266;10.542;2022-12-18T02:14:27;22.00;;;14.77;;
64959;SDS011;51487;52.266;10.542;2022-12-18T02:19:47;18.90;;;13.25;;
64959;SDS011;51487;52.266;10.542;2022-12-18T02:25:58;16.73;;;12.20;;
64959;SDS011;51487;52.266;10.542;2022-12-18T02:28:59;20.17;;;13.38;;
64959;SDS011;51487;52.266;10.542;2022-12-18T02:31:42;16.95;;;13.38;;
64959;SDS011;51487;52.266;10.542;2022-12-18T02:34:16;19.48;;;14.20;;
64959;SDS011;51487;52.266;10.542;2022-12-18T02:36:44;23.23;;;14.70;;
64959;SDS011;51487;52.266;10.542;2022-12-18T02:39:13;18.33;;;14.02;;
64959;SDS011;51487;52.266;10.542;2022-12-18T02:41:40;18.65;;;13.35;;
64959;SDS011;51487;52.266;10.542;2022-12-18T02:44:08;20.52;;;14.27;;
64959;SDS011;51487;52.266;10.542;2022-12-18T02:46:51;19.98;;;13.02;;
64959;SDS011;51487;52.266;10.542;2022-12-18T02:52:07;19.08;;;13.60;;
64959;SDS011;51487;52.266;10.542;2022-12-18T02:57:56;18.52;;;13.57;;
64959;SDS011;51487;52.266;10.542;2022-12-18T03:00:42;18.38;;;12.27;;
64959;SDS011;51487;52.266;10.542;2022-12-18T03:03:17;17.73;;;12.63;;
64959;SDS011;51487;52.266;10.542;2022-12-18T03:05:56;17.75;;;12.27;;
64959;SDS011;51487;52.266;10.542;2022-12-18T03:08:42;17.48;;;13.30;;
64959;SDS011;51487;52.266;10.542;2022-12-18T03:11:13;17.23;;;12.55;;
64959;SDS011;51487;52.266;10.542;2022-12-18T03:16:22;15.98;;;12.15;;
64959;SDS011;51487;52.266;10.542;2022-12-18T03:18:59;17.10;;;13.88;;
64959;SDS011;51487;52.266;10.542;2022-12-18T03:21:33;17.33;;;13.10;;
64959;SDS011;51487;52.266;10.542;2022-12-18T03:24:08;20.48;;;13.88;;
64959;SDS011;51487;52.266;10.542;2022-12-18T03:26:36;19.67;;;12.98;;
64959;SDS011;51487;52.266;10.542;2022-12-18T03:29:09;18.77;;;12.98;;
64959;SDS011;51487;52.266;10.542;2022-12-18T03:31:49;19.75;;;13.77;;
64959;SDS011;51487;52.266;10.542;2022-12-18T03:34:22;16.35;;;12.73;;
64959;SDS011;51487;52.266;10.542;2022-12-18T03:36:54;18.95;;;13.73;;
64959;SDS011;51487;52.266;10.542;2022-12-18T03:39:19;17.42;;;13.05;;
64959;SDS011;51487;52.266;10.542;2022-12-18T03:41:51;16.35;;;12.50;;
64959;SDS011;51487;52.266;10.542;2022-12-18T03:45:02;15.27;;;11.50;;
64959;SDS011;51487;52.266;10.542;2022-12-18T03:51:15;16.20;;;11.57;;
64959;SDS011;51487;52.266;10.542;2022-12-18T03:54:01;15.98;;;12.18;;
64959;SDS011;51487;52.266;10.542;2022-12-18T03:56:31;18.13;;;12.32;;
64959;SDS011;51487;52.266;10.542;2022-12-18T03:59:03;17.98;;;12.45;;
64959;SDS011;51487;52.266;10.542;2022-12-18T04:01:33;14.30;;;11.27;;
64959;SDS011;51487;52.266;10.542;2022-12-18T04:04:04;17.10;;;11.82;;
64959;SDS011;51487;52.266;10.542;2022-12-18T04:06:31;16.02;;;12.27;;
64959;SDS011;51487;52.266;10.542;2022-12-18T04:08:57;18.85;;;12.15;;
64959;SDS011;51487;52.266;10.542;2022-12-18T04:11:24;16.92;;;12.18;;
64959;SDS011;51487;52.266;10.542;2022-12-18T04:13:50;16.55;;;11.27;;
64959;SDS011;51487;52.266;10.542;2022-12-18T04:16:19;19.23;;;13.18;;
64959;SDS011;51487;52.266;10.542;2022-12-18T04:18:45;16.15;;;11.80;;
64959;SDS011;51487;52.266;10.542;2022-12-18T04:21:10;17.92;;;13.15;;
64959;SDS011;51487;52.266;10.542;2022-12-18T04:23:36;17.75;;;11.50;;
64959;SDS011;51487;52.266;10.542;2022-12-18T04:26:01;16.05;;;12.35;;
64959;SDS011;51487;52.266;10.542;2022-12-18T04:28:27;18.35;;;13.57;;
64959;SDS011;51487;52.266;10.542;2022-12-18T04:30:52;18.27;;;13.23;;
64959;SDS011;51487;52.266;10.542;2022-12-18T04:33:18;17.85;;;13.02;;
64959;SDS011;51487;52.266;10.542;2022-12-18T04:35:44;17.88;;;12.05;;
64959;SDS011;51487;52.266;10.542;2022-12-18T04:38:09;18.55;;;12.55;;
64959;SDS011;51487;52.266;10.542;2022-12-18T04:40:35;22.75;;;13.40;;
64959;SDS011;51487;52.266;10.542;2022-12-18T04:43:02;18.27;;;12.55;;
64959;SDS011;51487;52.266;10.542;2022-12-18T04:45:29;16.45;;;11.95;;
64959;SDS011;51487;52.266;10.542;2022-12-18T04:47:59;15.68;;;11.48;;
64959;SDS011;51487;52.266;10.542;2022-12-18T04:50:26;16.52;;;11.55;;
64959;SDS011;51487;52.266;10.542;2022-12-18T04:52:53;18.40;;;13.18;;
64959;SDS011;51487;52.266;10.542;2022-12-18T04:55:19;17.20;;;12.70;;
64959;SDS011;51487;52.266;10.542;2022-12-18T04:57:45;18.30;;;13.05;;
64959;SDS011;51487;52.266;10.542;2022-12-18T05:00:10;18.08;;;12.25;;
64959;SDS011;51487;52.266;10.542;2022-12-18T05:02:37;20.58;;;13.07;;
64959;SDS011;51487;52.266;10.542;2022-12-18T05:05:03;20.15;;;13.23;;
64959;SDS011;51487;52.266;10.542;2022-12-18T05:07:29;18.33;;;13.68;;
64959;SDS011;51487;52.266;10.542;2022-12-18T05:09:55;20.52;;;13.55;;
64959;SDS011;51487;52.266;10.542;2022-12-18T05:12:20;21.55;;;12.70;;
64959;SDS011;51487;52.266;10.542;2022-12-18T05:14:46;18.65;;;13.25;;
64959;SDS011;51487;52.266;10.542;2022-12-18T05:17:11;18.50;;;13.55;;
64959;SDS011;51487;52.266;10.542;2022-12-18T05:19:37;17.30;;;12.13;;
64959;SDS011;51487;52.266;10.542;2022-12-18T05:22:02;19.08;;;13.15;;
64959;SDS011;51487;52.266;10.542;2022-12-18T05:24:28;19.25;;;13.70;;
64959;SDS011;51487;52.266;10.542;2022-12-18T05:26:53;19.92;;;13.50;;
64959;SDS011;51487;52.266;10.542;2022-12-18T05:29:19;18.75;;;13.45;;
64959;SDS011;51487;52.266;10.542;2022-12-18T05:31:44;19.08;;;12.32;;
64959;SDS011;51487;52.266;10.542;2022-12-18T05:34:10;15.88;;;11.88;;
64959;SDS011;51487;52.266;10.542;2022-12-18T05:36:36;16.90;;;12.50;;
64959;SDS011;51487;52.266;10.542;2022-12-18T05:39:01;17.70;;;13.48;;
64959;SDS011;51487;52.266;10.542;2022-12-18T05:41:27;15.60;;;12.10;;
64959;SDS011;51487;52.266;10.542;2022-12-18T05:43:53;15.68;;;11.85;;
64959;SDS011;51487;52.266;10.542;2022-12-18T05:46:19;16.88;;;12.60;;
64959;SDS011;51487;52.266;10.542;2022-12-18T05:48:45;18.65;;;11.98;;
64959;SDS011;51487;52.266;10.542;2022-12-18T05:51:12;17.88;;;12.48;;
64959;SDS011;51487;52.266;10.542;2022-12-18T05:53:40;18.23;;;12.77;;
64959;SDS011;51487;52.266;10.542;2022-12-18T05:56:08;18.70;;;12.13;;
64959;SDS011;51487;52.266;10.542;2022-12-18T05:58:37;18.40;;;12.68;;
64959;SDS011;51487;52.266;10.542;2022-12-18T06:01:10;15.45;;;11.85;;
64959;SDS011;51487;52.266;10.542;2022-12-18T06:03:43;22.48;;;11.40;;
64959;SDS011;51487;52.266;10.542;2022-12-18T06:06:27;19.10;;;12.40;;
64959;SDS011;51487;52.266;10.542;2022-12-18T06:08:53;18.20;;;11.20;;
64959;SDS011;51487;52.266;10.542;2022-12-18T06:11:24;18.75;;;12.60;;
64959;SDS011;51487;52.266;10.542;2022-12-18T06:13:51;18.58;;;12.25;;
64959;SDS011;51487;52.266;10.542;2022-12-18T06:16:19;16.98;;;12.27;;
64959;SDS011;51487;52.266;10.542;2022-12-18T06:18:44;22.35;;;12.35;;
64959;SDS011;51487;52.266;10.542;2022-12-18T06:21:11;21.17;;;12.98;;
64959;SDS011;51487;52.266;10.542;2022-12-18T06:23:36;19.27;;;12.32;;
64959;SDS011;51487;52.266;10.542;2022-12-18T06:26:03;20.08;;;12.30;;
64959;SDS011;51487;52.266;10.542;2022-12-18T06:28:34;17.10;;;12.02;;
64959;SDS011;51487;52.266;10.542;2022-12-18T06:30:59;21.92;;;13.15;;
64959;SDS011;51487;52.266;10.542;2022-12-18T06:33:26;16.40;;;12.38;;
64959;SDS011;51487;52.266;10.542;2022-12-18T06:36:05;18.33;;;12.68;;
64959;SDS011;51487;52.266;10.542;2022-12-18T06:38:34;16.55;;;12.07;;
64959;SDS011;51487;52.266;10.542;2022-12-18T06:41:11;17.15;;;12.02;;
64959;SDS011;51487;52.266;10.542;2022-12-18T06:43:40;16.55;;;11.23;;
64959;SDS011;51487;52.266;10.542;2022-12-18T06:46:06;15.77;;;11.02;;
64959;SDS011;51487;52.266;10.542;2022-12-18T06:48:32;19.67;;;12.75;;
64959;SDS011;51487;52.266;10.542;2022-12-18T06:50:58;17.33;;;12.13;;
64959;SDS011;51487;52.266;10.542;2022-12-18T06:53:24;19.60;;;12.48;;
64959;SDS011;51487;52.266;10.542;2022-12-18T06:55:49;17.50;;;12.82;;
64959;SDS011;51487;52.266;10.542;2022-12-18T06:58:16;17.65;;;13.32;;
64959;SDS011;51487;52.266;10.542;2022-12-18T07:00:41;17.13;;;12.20;;
64959;SDS011;51487;52.266;10.542;2022-12-18T07:03:07;18.67;;;12.23;;
64959;SDS011;51487;52.266;10.542;2022-12-18T07:05:32;20.33;;;12.77;;
64959;SDS011;51487;52.266;10.542;2022-12-18T07:07:58;20.10;;;13.45;;
64959;SDS011;51487;52.266;10.542;2022-12-18T07:10:24;19.38;;;13.10;;
64959;SDS011;51487;52.266;10.542;2022-12-18T07:12:50;20.40;;;12.40;;
64959;SDS011;51487;52.266;10.542;2022-12-18T07:15:15;20.35;;;12.63;;
64959;SDS011;51487;52.266;10.542;2022-12-18T07:17:43;18.77;;;11.65;;
64959;SDS011;51487;52.266;10.542;2022-12-18T07:20:09;20.05;;;11.60;;
64959;SDS011;51487;52.266;10.542;2022-12-18T07:22:35;17.63;;;11.55;;
64959;SDS011;51487;52.266;10.542;2022-12-18T07:25:00;15.73;;;12.13;;
64959;SDS011;51487;52.266;10.542;2022-12-18T07:27:26;18.63;;;12.85;;
64959;SDS011;51487;52.266;10.542;2022-12-18T07:29:51;15.57;;;11.95;;
64959;SDS011;51487;52.266;10.542;2022-12-18T07:32:17;17.13;;;11.85;;
64959;SDS011;51487;52.266;10.542;2022-12-18T07:34:42;16.85;;;12.75;;
64959;SDS011;51487;52.266;10.542;2022-12-18T07:37:08;19.38;;;12.60;;
64959;SDS011;51487;52.266;10.542;2022-12-18T07:39:33;18.27;;;11.35;;
64959;SDS011;51487;52.266;10.542;2022-12-18T07:41:58;18.40;;;12.32;;
64959;SDS011;51487;52.266;10.542;2022-12-18T07:44:43;22.15;;;12.30;;
64959;SDS011;51487;52.266;10.542;2022-12-18T07:47:08;19.63;;;12.10;;
64959;SDS011;51487;52.266;10.542;2022-12-18T07:49:34;16.80;;;11.88;;
64959;SDS011;51487;52.266;10.542;2022-12-18T07:51:59;17.42;;;12.65;;
64959;SDS011;51487;52.266;10.542;2022-12-18T07:54:26;18.38;;;12.25;;
64959;SDS011;51487;52.266;10.542;2022-12-18T07:56:52;19.45;;;12.63;;
64959;SDS011;51487;52.266;10.542;2022-12-18T07:59:18;15.52;;;12.40;;
64959;SDS011;51487;52.266;10.542;2022-12-18T08:01:43;17.30;;;11.88;;
64959;SDS011;51487;52.266;10.542;2022-12-18T08:04:09;19.73;;;11.85;;
64959;SDS011;51487;52.266;10.542;2022-12-18T08:06:35;19.60;;;13.32;;
64959;SDS011;51487;52.266;10.542;2022-12-18T08:09:01;22.35;;;13.25;;
64959;SDS011;51487;52.266;10.542;2022-12-18T08:11:27;24.65;;;12.55;;
64959;SDS011;51487;52.266;10.542;2022-12-18T08:13:53;20.23;;;12.90;;
64959;SDS011;51487;52.266;10.542;2022-12-18T08:16:20;21.90;;;13.40;;
64959;SDS011;51487;52.266;10.542;2022-12-18T08:18:47;21.52;;;12.80;;
64959;SDS011;51487;52.266;10.542;2022-12-18T08:23:45;21.63;;;12.30;;
64959;SDS011;51487;52.266;10.542;2022-12-18T08:26:11;19.23;;;13.18;;
64959;SDS011;51487;52.266;10.542;2022-12-18T08:28:38;18.17;;;12.18;;
64959;SDS011;51487;52.266;10.542;2022-12-18T08:31:04;21.02;;;13.02;;
64959;SDS011;51487;52.266;10.542;2022-12-18T08:33:32;19.80;;;11.70;;
64959;SDS011;51487;52.266;10.542;2022-12-18T08:35:58;16.50;;;11.30;;
64959;SDS011;51487;52.266;10.542;2022-12-18T08:38:25;19.15;;;12.23;;
64959;SDS011;51487;52.266;10.542;2022-12-18T08:41:01;21.58;;;12.13;;
64959;SDS011;51487;52.266;10.542;2022-12-18T08:43:32;20.70;;;12.30;;
64959;SDS011;51487;52.266;10.542;2022-12-18T08:46:17;20.40;;;11.73;;
64959;SDS011;51487;52.266;10.542;2022-12-18T08:48:44;16.10;;;11.30;;
64959;SDS011;51487;52.266;10.542;2022-12-18T08:51:10;19.75;;;12.50;;
64959;SDS011;51487;52.266;10.542;2022-12-18T08:53:36;17.33;;;12.00;;
64959;SDS011;51487;52.266;10.542;2022-12-18T08:56:02;17.63;;;12.48;;
64959;SDS011;51487;52.266;10.542;2022-12-18T08:58:29;22.73;;;12.13;;
64959;SDS011;51487;52.266;10.542;2022-12-18T09:01:04;20.65;;;12.35;;
64959;SDS011;51487;52.266;10.542;2022-12-18T09:03:37;21.17;;;13.45;;
64959;SDS011;51487;52.266;10.542;2022-12-18T09:06:03;21.15;;;13.05;;
64959;SDS011;51487;52.266;10.542;2022-12-18T09:08:30;19.23;;;12.90;;
64959;SDS011;51487;52.266;10.542;2022-12-18T09:10:55;21.40;;;13.55;;
64959;SDS011;51487;52.266;10.542;2022-12-18T09:13:21;21.00;;;13.40;;
64959;SDS011;51487;52.266;10.542;2022-12-18T09:15:50;20.77;;;12.48;;
64959;SDS011;51487;52.266;10.542;2022-12-18T09:18:19;19.98;;;13.40;;
64959;SDS011;51487;52.266;10.542;2022-12-18T09:20:47;17.92;;;12.13;;
64959;SDS011;51487;52.266;10.542;2022-12-18T09:23:12;21.02;;;13.45;;
64959;SDS011;51487;52.266;10.542;2022-12-18T09:25:39;19.13;;;12.38;;
64959;SDS011;51487;52.266;10.542;2022-12-18T09:28:06;17.35;;;12.60;;
64959;SDS011;51487;52.266;10.542;2022-12-18T09:30:44;22.33;;;12.50;;
64959;SDS011;51487;52.266;10.542;2022-12-18T09:33:14;22.48;;;12.60;;
64959;SDS011;51487;52.266;10.542;2022-12-18T09:35:41;18.58;;;12.13;;
64959;SDS011;51487;52.266;10.542;2022-12-18T09:38:09;18.77;;;12.50;;
64959;SDS011;51487;52.266;10.542;2022-12-18T09:40:41;17.88;;;12.07;;
64959;SDS011;51487;52.266;10.542;2022-12-18T09:43:19;16.55;;;11.82;;
64959;SDS011;51487;52.266;10.542;2022-12-18T09:45:53;19.65;;;11.48;;
64959;SDS011;51487;52.266;10.542;2022-12-18T09:48:26;20.63;;;12.05;;
64959;SDS011;51487;52.266;10.542;2022-12-18T09:51:15;17.58;;;11.02;;
64959;SDS011;51487;52.266;10.542;2022-12-18T09:53:56;17.15;;;11.27;;
64959;SDS011;51487;52.266;10.542;2022-12-18T09:56:28;17.15;;;11.60;;
64959;SDS011;51487;52.266;10.542;2022-12-18T09:59:01;17.57;;;11.03;;
64959;SDS011;51487;52.266;10.542;2022-12-18T10:01:28;17.80;;;11.55;;
64959;SDS011;51487;52.266;10.542;2022-12-18T10:03:55;16.23;;;10.82;;
64959;SDS011;51487;52.266;10.542;2022-12-18T10:06:23;14.65;;;10.90;;
64959;SDS011;51487;52.266;10.542;2022-12-18T10:09:05;16.38;;;10.65;;
64959;SDS011;51487;52.266;10.542;2022-12-18T10:14:53;16.63;;;11.35;;
64959;SDS011;51487;52.266;10.542;2022-12-18T10:28:26;16.15;;;9.85;;
64959;SDS011;51487;52.266;10.542;2022-12-18T10:30:55;13.82;;;10.07;;
64959;SDS011;51487;52.266;10.542;2022-12-18T10:33:22;15.23;;;9.85;;
64959;SDS011;51487;52.266;10.542;2022-12-18T10:35:53;14.30;;;9.65;;
64959;SDS011;51487;52.266;10.542;2022-12-18T10:38:24;15.80;;;9.68;;
64959;SDS011;51487;52.266;10.542;2022-12-18T10:40:56;13.23;;;9.73;;
64959;SDS011;51487;52.266;10.542;2022-12-18T10:43:28;11.95;;;8.98;;
64959;SDS011;51487;52.266;10.542;2022-12-18T10:51:26;15.43;;;9.57;;
64959;SDS011;51487;52.266;10.542;2022-12-18T10:53:55;13.90;;;9.80;;
64959;SDS011;51487;52.266;10.542;2022-12-18T10:56:26;17.08;;;10.75;;
64959;SDS011;51487;52.266;10.542;2022-12-18T10:59:07;15.82;;;10.48;;
64959;SDS011;51487;52.266;10.542;2022-12-18T11:01:50;14.10;;;10.02;;
64959;SDS011;51487;52.266;10.542;2022-12-18T11:04:23;15.80;;;10.70;;
64959;SDS011;51487;52.266;10.542;2022-12-18T11:09:38;16.55;;;10.57;;
64959;SDS011;51487;52.266;10.542;2022-12-18T11:14:46;14.63;;;10.60;;
64959;SDS011;51487;52.266;10.542;2022-12-18T11:17:19;17.05;;;11.45;;
64959;SDS011;51487;52.266;10.542;2022-12-18T11:20:01;14.13;;;10.10;;
64959;SDS011;51487;52.266;10.542;2022-12-18T11:22:33;17.83;;;11.13;;
64959;SDS011;51487;52.266;10.542;2022-12-18T11:27:30;15.68;;;10.48;;
64959;SDS011;51487;52.266;10.542;2022-12-18T11:38:25;15.45;;;11.20;;
64959;SDS011;51487;52.266;10.542;2022-12-18T11:40:58;16.60;;;11.98;;
64959;SDS011;51487;52.266;10.542;2022-12-18T11:46:24;14.15;;;10.27;;
64959;SDS011;51487;52.266;10.542;2022-12-18T11:49:00;15.23;;;10.00;;
64959;SDS011;51487;52.266;10.542;2022-12-18T11:51:33;13.77;;;9.45;;
64959;SDS011;51487;52.266;10.542;2022-12-18T11:54:12;14.05;;;9.13;;
64959;SDS011;51487;52.266;10.542;2022-12-18T12:05:26;15.15;;;9.07;;
64959;SDS011;51487;52.266;10.542;2022-12-18T12:08:36;10.27;;;7.97;;
64959;SDS011;51487;52.266;10.542;2022-12-18T12:36:21;10.93;;;8.52;;
64959;SDS011;51487;52.266;10.542;2022-12-18T12:39:23;14.27;;;9.02;;
64959;SDS011;51487;52.266;10.542;2022-12-18T12:41:56;14.52;;;9.10;;
64959;SDS011;51487;52.266;10.542;2022-12-18T12:44:43;12.35;;;8.32;;
64959;SDS011;51487;52.266;10.542;2022-12-18T12:47:28;10.88;;;7.97;;
64959;SDS011;51487;52.266;10.542;2022-12-18T12:49:59;10.90;;;8.15;;
64959;SDS011;51487;52.266;10.542;2022-12-18T12:52:35;10.25;;;7.68;;
64959;SDS011;51487;52.266;10.542;2022-12-18T12:55:15;11.63;;;7.47;;
64959;SDS011;51487;52.266;10.542;2022-12-18T12:57:51;11.85;;;7.95;;
64959;SDS011;51487;52.266;10.542;2022-12-18T13:00:39;12.18;;;7.90;;
64959;SDS011;51487;52.266;10.542;2022-12-18T13:06:58;11.32;;;7.18;;
64959;SDS011;51487;52.266;10.542;2022-12-18T13:09:35;9.93;;;6.43;;
64959;SDS011;51487;52.266;10.542;2022-12-18T13:15:44;12.65;;;6.70;;
64959;SDS011;51487;52.266;10.542;2022-12-18T13:18:20;10.35;;;6.68;;
64959;SDS011;51487;52.266;10.542;2022-12-18T13:25:48;9.88;;;6.53;;
64959;SDS011;51487;52.266;10.542;2022-12-18T13:30:58;11.00;;;6.15;;
64959;SDS011;51487;52.266;10.542;2022-12-18T13:35:55;10.57;;;6.93;;
64959;SDS011;51487;52.266;10.542;2022-12-18T13:39:09;9.43;;;6.55;;
64959;SDS011;51487;52.266;10.542;2022-12-18T13:41:43;11.32;;;7.45;;
64959;SDS011;51487;52.266;10.542;2022-12-18T13:44:44;10.70;;;7.05;;
64959;SDS011;51487;52.266;10.542;2022-12-18T13:47:05;12.82;;;8.25;;
64959;SDS011;51487;52.266;10.542;2022-12-18T13:49:58;11.70;;;7.97;;
64959;SDS011;51487;52.266;10.542;2022-12-18T13:52:26;13.27;;;8.63;;
64959;SDS011;51487;52.266;10.542;2022-12-18T13:55:02;14.02;;;9.27;;
64959;SDS011;51487;52.266;10.542;2022-12-18T13:57:39;14.48;;;10.07;;
64959;SDS011;51487;52.266;10.542;2022-12-18T14:00:40;16.17;;;10.45;;
64959;SDS011;51487;52.266;10.542;2022-12-18T14:02:57;14.00;;;10.40;;
64959;SDS011;51487;52.266;10.542;2022-12-18T14:05:25;16.52;;;10.95;;
64959;SDS011;51487;52.266;10.542;2022-12-18T14:07:53;13.80;;;10.43;;
64959;SDS011;51487;52.266;10.542;2022-12-18T14:10:20;18.00;;;11.38;;
64959;SDS011;51487;52.266;10.542;2022-12-18T14:12:47;14.70;;;10.48;;
64959;SDS011;51487;52.266;10.542;2022-12-18T14:17:50;18.40;;;11.00;;
64959;SDS011;51487;52.266;10.542;2022-12-18T14:20:27;15.73;;;11.20;;
64959;SDS011;51487;52.266;10.542;2022-12-18T14:22:55;14.97;;;11.20;;
64959;SDS011;51487;52.266;10.542;2022-12-18T14:25:26;15.63;;;11.35;;
64959;SDS011;51487;52.266;10.542;2022-12-18T14:28:14;15.07;;;10.82;;
64959;SDS011;51487;52.266;10.542;2022-12-18T14:30:42;14.15;;;9.93;;
64959;SDS011;51487;52.266;10.542;2022-12-18T14:33:24;12.98;;;10.43;;
64959;SDS011;51487;52.266;10.542;2022-12-18T14:35:54;13.63;;;9.23;;
64959;SDS011;51487;52.266;10.542;2022-12-18T14:38:23;12.98;;;10.52;;
64959;SDS011;51487;52.266;10.542;2022-12-18T14:41:00;12.05;;;9.63;;
64959;SDS011;51487;52.266;10.542;2022-12-18T14:43:41;14.80;;;9.88;;
64959;SDS011;51487;52.266;10.542;2022-12-18T14:48:57;15.07;;;9.45;;
64959;SDS011;51487;52.266;10.542;2022-12-18T14:51:27;14.20;;;9.15;;
64959;SDS011;51487;52.266;10.542;2022-12-18T14:53:57;13.65;;;9.82;;
64959;SDS011;51487;52.266;10.542;2022-12-18T14:56:43;15.70;;;9.80;;
64959;SDS011;51487;52.266;10.542;2022-12-18T14:59:16;13.70;;;9.85;;
64959;SDS011;51487;52.266;10.542;2022-12-18T15:01:48;12.63;;;9.57;;
64959;SDS011;51487;52.266;10.542;2022-12-18T15:04:42;13.52;;;9.45;;
64959;SDS011;51487;52.266;10.542;2022-12-18T15:09:37;10.90;;;9.45;;
64959;SDS011;51487;52.266;10.542;2022-12-18T15:20:55;12.93;;;8.88;;
64959;SDS011;51487;52.266;10.542;2022-12-18T15:23:26;12.73;;;9.80;;
64959;SDS011;51487;52.266;10.542;2022-12-18T15:26:18;12.10;;;9.13;;
64959;SDS011;51487;52.266;10.542;2022-12-18T15:28:48;13.30;;;9.20;;
64959;SDS011;51487;52.266;10.542;2022-12-18T15:36:20;11.25;;;8.23;;
64959;SDS011;51487;52.266;10.542;2022-12-18T15:38:50;12.05;;;7.70;;
64959;SDS011;51487;52.266;10.542;2022-12-18T15:41:18;10.23;;;7.30;;
64959;SDS011;51487;52.266;10.542;2022-12-18T15:43:47;10.63;;;7.65;;
64959;SDS011;51487;52.266;10.542;2022-12-18T15:46:16;10.95;;;8.00;;
64959;SDS011;51487;52.266;10.542;2022-12-18T15:48:46;9.13;;;7.70;;
64959;SDS011;51487;52.266;10.542;2022-12-18T15:51:22;11.43;;;7.70;;
64959;SDS011;51487;52.266;10.542;2022-12-18T15:53:56;11.63;;;7.97;;
64959;SDS011;51487;52.266;10.542;2022-12-18T15:56:27;9.98;;;7.85;;
64959;SDS011;51487;52.266;10.542;2022-12-18T15:59:12;14.52;;;8.65;;
64959;SDS011;51487;52.266;10.542;2022-12-18T16:01:46;11.15;;;8.57;;
64959;SDS011;51487;52.266;10.542;2022-12-18T16:04:14;12.20;;;8.52;;
64959;SDS011;51487;52.266;10.542;2022-12-18T16:06:45;11.98;;;9.05;;
64959;SDS011;51487;52.266;10.542;2022-12-18T16:09:10;14.60;;;9.52;;
64959;SDS011;51487;52.266;10.542;2022-12-18T16:11:36;12.00;;;8.43;;
64959;SDS011;51487;52.266;10.542;2022-12-18T16:14:18;11.73;;;8.57;;
64959;SDS011;51487;52.266;10.542;2022-12-18T16:16:53;11.23;;;8.82;;
64959;SDS011;51487;52.266;10.542;2022-12-18T16:19:22;14.95;;;9.52;;
64959;SDS011;51487;52.266;10.542;2022-12-18T16:21:48;12.60;;;8.85;;
64959;SDS011;51487;52.266;10.542;2022-12-18T16:24:17;11.45;;;8.82;;
64959;SDS011;51487;52.266;10.542;2022-12-18T16:26:49;13.82;;;8.30;;
64959;SDS011;51487;52.266;10.542;2022-12-18T16:29:16;13.80;;;9.20;;
64959;SDS011;51487;52.266;10.542;2022-12-18T16:31:43;13.95;;;9.25;;
64959;SDS011;51487;52.266;10.542;2022-12-18T16:34:13;12.70;;;9.35;;
64959;SDS011;51487;52.266;10.542;2022-12-18T16:36:54;12.32;;;9.38;;
64959;SDS011;51487;52.266;10.542;2022-12-18T16:39:25;11.32;;;8.38;;
64959;SDS011;51487;52.266;10.542;2022-12-18T16:41:52;14.43;;;9.07;;
64959;SDS011;51487;52.266;10.542;2022-12-18T16:44:18;14.23;;;9.90;;
64959;SDS011;51487;52.266;10.542;2022-12-18T16:46:44;13.02;;;9.40;;
64959;SDS011;51487;52.266;10.542;2022-12-18T16:49:16;11.70;;;9.45;;
64959;SDS011;51487;52.266;10.542;2022-12-18T16:51:43;14.32;;;9.52;;
64959;SDS011;51487;52.266;10.542;2022-12-18T16:54:11;12.32;;;9.40;;
64959;SDS011;51487;52.266;10.542;2022-12-18T16:56:37;15.52;;;9.80;;
64959;SDS011;51487;52.266;10.542;2022-12-18T16:59:03;13.68;;;9.90;;